createdAt,value
2019-05-02T00:00:05.971Z,15.85
2019-05-02T00:02:40.509Z,15.08
2019-05-02T00:05:13.353Z,15.25
2019-05-02T00:07:46.760Z,14.23
2019-05-02T00:10:24.779Z,14.78
2019-05-02T00:12:55.885Z,13.88
2019-05-02T00:15:33.029Z,13.68
2019-05-02T00:18:03.498Z,13.78
2019-05-02T00:20:36.226Z,14.43
2019-05-02T00:23:09.274Z,12.75
2019-05-02T00:25:42.167Z,14.13
2019-05-02T00:28:14.745Z,14.78
2019-05-02T00:30:47.478Z,14.20
2019-05-02T00:33:20.113Z,14.18
2019-05-02T00:35:52.964Z,14.25
2019-05-02T00:38:26.058Z,14.43
2019-05-02T00:41:02.334Z,13.80
2019-05-02T00:43:34.409Z,14.33
2019-05-02T00:46:07.681Z,14.10
2019-05-02T00:48:41.795Z,13.68
2019-05-02T00:51:15.307Z,13.98
2019-05-02T00:53:48.291Z,13.68
2019-05-02T00:56:22.299Z,13.62
2019-05-02T00:58:54.803Z,14.35
2019-05-02T01:01:29.408Z,14.85
2019-05-02T01:04:03.701Z,14.25
2019-05-02T01:06:36.755Z,13.95
2019-05-02T01:09:11.531Z,14.30
2019-05-02T01:11:45.271Z,14.87
2019-05-02T01:14:18.026Z,14.87
2019-05-02T01:16:54.348Z,14.35
2019-05-02T01:19:26.563Z,15.03
2019-05-02T01:22:00.774Z,14.45
2019-05-02T01:24:41.597Z,14.30
2019-05-02T01:27:12.348Z,14.75
2019-05-02T01:29:46.677Z,14.93
2019-05-02T01:32:25.202Z,15.75
2019-05-02T01:34:57.992Z,15.63
2019-05-02T01:40:04.528Z,16.12
2019-05-02T01:42:40.064Z,15.00
2019-05-02T01:45:12.591Z,16.00
2019-05-02T01:47:46.383Z,15.60
2019-05-02T01:50:19.207Z,15.98
2019-05-02T01:52:53.723Z,15.63
2019-05-02T01:55:27.341Z,15.25
2019-05-02T01:58:01.056Z,15.45
2019-05-02T02:00:34.352Z,15.68
2019-05-02T02:03:09.056Z,15.38
2019-05-02T02:05:43.050Z,15.00
2019-05-02T02:08:16.876Z,16.00
2019-05-02T02:10:55.652Z,14.65
2019-05-02T02:13:26.137Z,15.55
2019-05-02T02:16:00.179Z,15.45
2019-05-02T02:18:37.929Z,14.95
2019-05-02T02:21:12.984Z,14.98
2019-05-02T02:23:49.594Z,15.10
2019-05-02T02:26:24.766Z,15.40
2019-05-02T02:31:30.387Z,15.00
2019-05-02T02:34:03.436Z,14.07
2019-05-02T02:36:37.048Z,15.35
2019-05-02T02:39:14.006Z,14.78
2019-05-02T02:41:52.032Z,15.63
2019-05-02T02:44:23.554Z,17.15
2019-05-02T02:46:57.886Z,15.80
2019-05-02T02:49:31.382Z,16.07
2019-05-02T02:52:06.937Z,16.57
2019-05-02T02:54:43.107Z,15.55
2019-05-02T02:57:26.032Z,15.85
2019-05-02T02:59:51.547Z,16.77
2019-05-02T03:02:24.894Z,17.35
2019-05-02T03:04:58.545Z,17.70
2019-05-02T03:07:32.002Z,15.70
2019-05-02T03:10:08.521Z,17.15
2019-05-02T03:12:43.304Z,16.35
2019-05-02T03:15:21.242Z,16.93
2019-05-02T03:17:53.191Z,18.05
2019-05-02T03:20:27.360Z,18.07
2019-05-02T03:23:01.400Z,16.23
2019-05-02T03:25:49.907Z,18.23
2019-05-02T03:28:17.353Z,16.82
2019-05-02T03:30:46.954Z,16.95
2019-05-02T03:33:20.711Z,18.17
2019-05-02T03:35:54.712Z,18.62
2019-05-02T03:38:32.757Z,19.07
2019-05-02T03:41:04.486Z,18.67
2019-05-02T03:43:37.807Z,18.10
2019-05-02T03:46:13.431Z,18.75
2019-05-02T03:48:46.638Z,19.85
2019-05-02T03:51:24.767Z,18.23
2019-05-02T03:56:28.018Z,19.60
2019-05-02T03:59:01.241Z,19.62
2019-05-02T04:01:41.194Z,18.95
2019-05-02T04:04:14.101Z,18.65
2019-05-02T04:06:45.735Z,21.07
2019-05-02T04:09:20.914Z,17.00
2019-05-02T04:11:54.491Z,18.95
2019-05-02T04:14:37.760Z,19.50
2019-05-02T04:17:04.168Z,19.55
2019-05-02T04:19:37.876Z,18.50
2019-05-02T04:22:11.995Z,18.42
2019-05-02T04:27:19.559Z,20.72
2019-05-02T04:29:54.047Z,21.30
2019-05-02T04:32:27.415Z,20.97
2019-05-02T04:35:00.845Z,19.75
2019-05-02T04:37:40.498Z,20.97
2019-05-02T04:40:12.320Z,20.15
2019-05-02T04:42:53.442Z,19.80
2019-05-02T04:47:58.419Z,19.37
2019-05-02T04:50:30.899Z,18.73
2019-05-02T04:53:04.287Z,19.35
2019-05-02T04:55:39.159Z,19.80
2019-05-02T04:58:26.642Z,19.40
2019-05-02T05:00:56.765Z,20.48
2019-05-02T05:03:25.726Z,19.17
2019-05-02T05:06:07.270Z,18.55
2019-05-02T05:08:38.912Z,18.37
2019-05-02T05:11:13.900Z,18.77
2019-05-02T05:13:52.352Z,19.37
2019-05-02T05:16:24.004Z,20.08
2019-05-02T05:19:07.756Z,19.15
2019-05-02T05:21:40.931Z,19.60
2019-05-02T05:24:13.939Z,19.15
2019-05-02T05:26:48.889Z,19.75
2019-05-02T05:32:05.293Z,22.55
2019-05-02T05:37:09.432Z,22.05
2019-05-02T05:39:48.084Z,21.93
2019-05-02T05:42:23.424Z,21.65
2019-05-02T05:44:53.697Z,22.65
2019-05-02T05:47:27.417Z,22.00
2019-05-02T05:50:01.383Z,20.60
2019-05-02T05:52:38.782Z,22.52
2019-05-02T05:55:12.894Z,21.75
2019-05-02T05:57:49.726Z,23.05
2019-05-02T06:00:27.807Z,20.77
2019-05-02T06:03:11.578Z,21.57
2019-05-02T06:05:44.362Z,20.37
2019-05-02T06:08:21.479Z,21.25
2019-05-02T06:10:54.962Z,20.48
2019-05-02T06:13:33.700Z,21.50
2019-05-02T06:16:15.102Z,22.10
2019-05-02T06:18:46.957Z,20.68
2019-05-02T06:21:23.377Z,20.20
2019-05-02T06:26:32.852Z,20.23
2019-05-02T06:29:13.037Z,20.95
2019-05-02T06:31:44.608Z,19.92
2019-05-02T06:34:19.024Z,20.85
2019-05-02T06:36:52.115Z,20.65
2019-05-02T06:39:27.023Z,20.20
2019-05-02T06:42:01.672Z,19.52
2019-05-02T06:44:34.946Z,19.92
2019-05-02T06:47:08.691Z,17.95
2019-05-02T06:49:42.167Z,19.60
2019-05-02T06:52:16.582Z,18.48
2019-05-02T06:54:54.144Z,17.62
2019-05-02T06:59:59.275Z,19.07
2019-05-02T07:02:33.537Z,19.23
2019-05-02T07:07:42.302Z,18.82
2019-05-02T07:10:20.137Z,18.40
2019-05-02T07:13:09.212Z,17.98
2019-05-02T07:15:33.539Z,18.55
2019-05-02T07:18:10.562Z,18.23
2019-05-02T07:20:47.241Z,17.95
2019-05-02T07:23:34.518Z,17.77
2019-05-02T07:26:15.418Z,17.48
2019-05-02T07:28:47.478Z,18.30
2019-05-02T07:31:21.763Z,18.52
2019-05-02T07:33:55.543Z,16.57
2019-05-02T07:36:31.074Z,16.62
2019-05-02T07:39:07.058Z,16.97
2019-05-02T07:41:40.414Z,16.50
2019-05-02T07:44:14.984Z,17.80
2019-05-02T07:49:26.542Z,16.20
2019-05-02T07:51:59.263Z,17.02
2019-05-02T07:54:34.000Z,16.70
2019-05-02T07:57:08.088Z,15.70
2019-05-02T07:59:41.360Z,16.25
2019-05-02T08:02:15.119Z,15.85
2019-05-02T08:04:51.976Z,15.88
2019-05-02T08:07:34.041Z,15.75
2019-05-02T08:10:03.662Z,15.30
2019-05-02T08:12:38.144Z,15.68
2019-05-02T08:15:16.631Z,15.03
2019-05-02T08:17:55.283Z,14.45
2019-05-02T08:20:28.722Z,14.68
2019-05-02T08:23:03.406Z,14.68
2019-05-02T08:28:15.904Z,14.83
2019-05-02T08:30:47.096Z,14.58
2019-05-02T08:33:20.799Z,14.15
2019-05-02T08:35:54.020Z,14.70
2019-05-02T08:38:28.723Z,15.50
2019-05-02T08:41:03.349Z,14.78
2019-05-02T08:43:40.228Z,14.98
2019-05-02T08:46:15.951Z,14.50
2019-05-02T08:48:51.835Z,14.03
2019-05-02T08:51:26.959Z,15.48
2019-05-02T08:54:00.895Z,15.50
2019-05-02T08:56:36.636Z,15.55
2019-05-02T08:59:10.345Z,13.50
2019-05-02T09:01:49.477Z,14.00
2019-05-02T09:04:24.183Z,13.28
2019-05-02T09:06:58.876Z,13.83
2019-05-02T09:09:32.610Z,13.28
2019-05-02T09:12:12.354Z,13.38
2019-05-02T09:14:42.620Z,14.70
2019-05-02T09:17:16.715Z,14.55
2019-05-02T09:20:00.388Z,15.57
2019-05-02T09:24:56.707Z,13.28
2019-05-02T09:27:31.810Z,14.20
2019-05-02T09:30:12.424Z,16.17
2019-05-02T09:32:47.414Z,14.55
2019-05-02T09:37:56.757Z,14.20
2019-05-02T09:40:31.919Z,14.47
2019-05-02T09:43:06.095Z,15.23
2019-05-02T09:45:41.815Z,13.80
2019-05-02T09:48:17.444Z,13.83
2019-05-02T09:50:52.772Z,12.13
2019-05-02T09:56:01.988Z,9.73
2019-05-02T09:58:37.114Z,9.00
2019-05-02T10:01:12.859Z,12.82
2019-05-02T10:03:46.504Z,10.20
2019-05-02T10:06:19.927Z,10.15
2019-05-02T10:08:54.240Z,10.58
2019-05-02T10:11:27.733Z,10.65
2019-05-02T10:14:02.467Z,14.80
2019-05-02T10:16:36.405Z,15.20
2019-05-02T10:19:11.449Z,12.50
2019-05-02T10:21:47.039Z,14.00
2019-05-02T10:26:55.255Z,18.10
2019-05-02T10:29:29.720Z,11.20
2019-05-02T10:32:07.719Z,12.07
2019-05-02T10:34:37.618Z,10.35
2019-05-02T10:37:12.330Z,9.18
2019-05-02T10:39:49.759Z,8.78
2019-05-02T10:42:23.199Z,9.20
2019-05-02T10:44:58.333Z,9.63
2019-05-02T10:47:36.151Z,9.15
2019-05-02T10:50:11.688Z,9.43
2019-05-02T10:52:46.622Z,9.35
2019-05-02T10:55:22.300Z,9.55
2019-05-02T10:57:55.944Z,10.05
2019-05-02T11:00:32.518Z,10.55
2019-05-02T11:03:08.699Z,10.30
2019-05-02T11:05:43.631Z,11.18
2019-05-02T11:08:17.735Z,10.03
2019-05-02T11:10:52.739Z,9.90
2019-05-02T11:13:27.931Z,11.28
2019-05-02T11:16:04.067Z,10.03
2019-05-02T11:18:44.850Z,9.33
2019-05-02T11:21:18.741Z,17.80
2019-05-02T11:26:33.312Z,9.65
2019-05-02T11:29:08.956Z,11.38
2019-05-02T11:31:43.826Z,11.60
2019-05-02T11:34:17.907Z,12.07
2019-05-02T11:36:52.664Z,14.50
2019-05-02T11:39:35.625Z,15.38
2019-05-02T11:42:02.207Z,15.28
2019-05-02T11:47:10.042Z,12.80
2019-05-02T11:49:46.862Z,12.10
2019-05-02T11:54:52.109Z,11.43
2019-05-02T12:00:05.070Z,10.98
2019-05-02T12:05:12.784Z,12.10
2019-05-02T12:07:45.774Z,11.28
2019-05-02T12:10:21.635Z,11.97
2019-05-02T12:12:54.754Z,10.80
2019-05-02T12:15:28.107Z,11.33
2019-05-02T12:18:03.677Z,11.95
2019-05-02T12:20:38.747Z,12.20
2019-05-02T12:23:13.863Z,11.40
2019-05-02T12:26:05.529Z,11.78
2019-05-02T12:28:42.916Z,11.90
2019-05-02T12:31:17.622Z,12.65
2019-05-02T12:33:52.126Z,12.30
2019-05-02T12:36:25.355Z,11.63
2019-05-02T12:38:58.569Z,11.55
2019-05-02T12:41:33.159Z,10.72
2019-05-02T12:44:07.296Z,11.53
2019-05-02T12:46:42.761Z,12.07
2019-05-02T12:49:26.991Z,11.93
2019-05-02T12:54:26.728Z,12.37
2019-05-02T12:57:02.093Z,13.60
2019-05-02T12:59:35.662Z,13.97
2019-05-02T13:04:45.237Z,13.70
2019-05-02T13:07:19.948Z,14.10
2019-05-02T13:12:28.066Z,13.38
2019-05-02T13:17:42.928Z,13.78
2019-05-02T13:20:12.868Z,13.65
2019-05-02T13:22:47.376Z,13.32
2019-05-02T13:25:22.552Z,12.85
2019-05-02T13:27:57.462Z,13.28
2019-05-02T13:30:42.971Z,13.08
2019-05-02T13:33:12.117Z,13.88
2019-05-02T13:35:48.390Z,14.93
2019-05-02T13:38:23.034Z,16.02
2019-05-02T13:40:57.578Z,17.48
2019-05-02T13:43:33.382Z,16.52
2019-05-02T13:46:09.550Z,17.30
2019-05-02T13:48:43.516Z,16.17
2019-05-02T13:51:17.473Z,16.05
2019-05-02T13:53:54.451Z,15.32
2019-05-02T13:56:27.677Z,16.97
2019-05-02T13:59:03.725Z,15.80
2019-05-02T14:01:42.369Z,15.00
2019-05-02T14:04:15.719Z,15.72
2019-05-02T14:06:52.848Z,16.00
2019-05-02T14:09:28.746Z,14.38
2019-05-02T14:12:05.423Z,16.35
2019-05-02T14:14:42.336Z,15.68
2019-05-02T14:17:15.864Z,15.98
2019-05-02T14:20:07.411Z,16.07
2019-05-02T14:22:32.516Z,15.75
2019-05-02T14:25:07.243Z,15.68
2019-05-02T14:27:42.213Z,15.20
2019-05-02T14:30:17.138Z,15.48
2019-05-02T14:32:52.831Z,15.75
2019-05-02T14:35:29.936Z,15.93
2019-05-02T14:38:05.494Z,16.00
2019-05-02T14:40:42.873Z,15.60
2019-05-02T14:43:18.939Z,15.32
2019-05-02T14:45:57.411Z,15.00
2019-05-02T14:48:34.507Z,15.80
2019-05-02T14:51:06.556Z,15.32
2019-05-02T14:53:43.011Z,15.65
2019-05-02T14:56:20.256Z,15.40
2019-05-02T14:58:54.760Z,15.55
2019-05-02T15:01:32.159Z,16.12
2019-05-02T15:04:08.194Z,15.85
2019-05-02T15:06:47.117Z,15.15
2019-05-02T15:09:24.832Z,15.32
2019-05-02T15:11:55.855Z,15.35
2019-05-02T15:14:32.678Z,15.85
2019-05-02T15:17:07.074Z,15.88
2019-05-02T15:19:42.747Z,16.90
2019-05-02T15:22:17.757Z,15.65
2019-05-02T15:24:52.961Z,15.53
2019-05-02T15:27:39.335Z,14.80
2019-05-02T15:30:06.703Z,15.68
2019-05-02T15:32:46.209Z,15.43
2019-05-02T15:35:23.042Z,15.55
2019-05-02T15:37:56.530Z,14.38
2019-05-02T15:43:09.184Z,14.55
2019-05-02T15:45:44.028Z,15.30
2019-05-02T15:48:22.625Z,15.10
2019-05-02T15:50:55.359Z,14.33
2019-05-02T15:53:32.361Z,14.45
2019-05-02T15:56:15.735Z,14.90
2019-05-02T15:58:44.932Z,15.50
2019-05-02T16:01:22.456Z,16.25
2019-05-02T16:03:57.244Z,17.95
2019-05-02T16:06:38.589Z,16.95
2019-05-02T16:09:16.008Z,17.07
2019-05-02T16:11:53.287Z,18.15
2019-05-02T16:14:27.202Z,16.52
2019-05-02T16:17:03.819Z,17.25
2019-05-02T16:19:39.123Z,15.93
2019-05-02T16:22:15.687Z,16.65
2019-05-02T16:24:51.029Z,16.07
2019-05-02T16:27:29.096Z,15.30
2019-05-02T16:30:06.098Z,16.48
2019-05-02T16:32:42.016Z,17.73
2019-05-02T16:35:17.371Z,16.07
2019-05-02T16:37:56.037Z,17.98
2019-05-02T16:40:32.163Z,16.95
2019-05-02T16:43:03.852Z,16.85
2019-05-02T16:45:38.367Z,17.27
2019-05-02T16:50:46.853Z,17.02
2019-05-02T16:53:22.709Z,18.12
2019-05-02T16:55:58.490Z,18.00
2019-05-02T16:58:33.706Z,17.92
2019-05-02T17:01:09.032Z,17.98
2019-05-02T17:03:43.285Z,18.67
2019-05-02T17:06:22.458Z,17.27
2019-05-02T17:08:57.524Z,17.32
2019-05-02T17:11:34.511Z,17.05
2019-05-02T17:14:07.144Z,16.75
2019-05-02T17:16:42.541Z,15.98
2019-05-02T17:19:17.086Z,15.80
2019-05-02T17:21:56.320Z,15.78
2019-05-02T17:24:26.428Z,16.42
2019-05-02T17:27:02.453Z,16.12
2019-05-02T17:29:35.471Z,16.55
2019-05-02T17:32:09.184Z,15.50
2019-05-02T17:34:42.450Z,14.98
2019-05-02T17:37:15.865Z,15.28
2019-05-02T17:42:25.849Z,14.83
2019-05-02T17:45:03.360Z,15.55
2019-05-02T17:47:36.150Z,14.03
2019-05-02T17:50:17.794Z,15.90
2019-05-02T17:52:49.239Z,14.60
2019-05-02T17:55:23.996Z,14.63
2019-05-02T17:57:57.687Z,13.40
2019-05-02T18:00:33.431Z,14.33
2019-05-02T18:03:07.856Z,14.55
2019-05-02T18:05:41.858Z,14.90
2019-05-02T18:08:15.586Z,14.20
2019-05-02T18:10:50.636Z,14.90
2019-05-02T18:13:23.840Z,14.10
2019-05-02T18:15:59.706Z,14.30
2019-05-02T18:18:32.522Z,15.50
2019-05-02T18:21:06.357Z,17.23
2019-05-02T18:23:39.663Z,15.83
2019-05-02T18:26:12.950Z,16.20
2019-05-02T18:28:49.259Z,16.52
2019-05-02T18:31:21.711Z,17.95
2019-05-02T18:33:56.272Z,16.33
2019-05-02T18:36:29.160Z,16.93
2019-05-02T18:39:05.132Z,16.40
2019-05-02T18:41:41.732Z,16.60
2019-05-02T18:44:17.194Z,16.97
2019-05-02T18:46:46.051Z,16.35
2019-05-02T18:49:21.908Z,17.65
2019-05-02T18:51:57.340Z,16.60
2019-05-02T18:54:28.238Z,16.07
2019-05-02T18:57:02.387Z,17.25
2019-05-02T18:59:35.117Z,15.95
2019-05-02T19:02:08.759Z,17.35
2019-05-02T19:04:42.393Z,16.75
2019-05-02T19:07:15.940Z,15.48
2019-05-02T19:09:51.398Z,16.20
2019-05-02T19:12:26.030Z,16.10
2019-05-02T19:15:05.391Z,15.75
2019-05-02T19:17:38.373Z,17.45
2019-05-02T19:20:11.050Z,16.73
2019-05-02T19:22:50.765Z,17.45
2019-05-02T19:25:17.418Z,17.43
2019-05-02T19:27:52.026Z,16.90
2019-05-02T19:30:27.343Z,17.25
2019-05-02T19:33:06.059Z,16.45
2019-05-02T19:35:37.686Z,16.33
2019-05-02T19:38:16.978Z,17.27
2019-05-02T19:40:46.910Z,16.12
2019-05-02T19:43:19.990Z,16.95
2019-05-02T19:45:54.031Z,16.12
2019-05-02T19:48:32.976Z,16.70
2019-05-02T19:51:02.451Z,16.97
2019-05-02T19:53:35.425Z,16.82
2019-05-02T19:56:07.781Z,16.48
2019-05-02T19:58:42.576Z,15.20
2019-05-02T20:01:17.426Z,16.30
2019-05-02T20:03:48.998Z,15.35
2019-05-02T20:06:22.147Z,16.23
2019-05-02T20:08:59.242Z,16.37
2019-05-02T20:11:32.926Z,17.27
2019-05-02T20:14:08.976Z,16.40
2019-05-02T20:16:44.107Z,17.05
2019-05-02T20:19:17.308Z,16.55
2019-05-02T20:21:49.113Z,16.77
2019-05-02T20:24:22.667Z,17.67
2019-05-02T20:26:56.178Z,17.10
2019-05-02T20:29:29.200Z,16.57
2019-05-02T20:32:02.397Z,16.35
2019-05-02T20:34:35.687Z,16.85
2019-05-02T20:37:08.263Z,16.60
2019-05-02T20:39:41.609Z,16.77
2019-05-02T20:42:14.466Z,15.20
2019-05-02T20:44:46.711Z,16.70
2019-05-02T20:47:22.175Z,16.35
2019-05-02T20:49:55.141Z,17.23
2019-05-02T20:52:28.132Z,18.95
2019-05-02T20:55:01.801Z,16.70
2019-05-02T20:57:34.723Z,17.27
2019-05-02T21:00:12.136Z,17.12
2019-05-02T21:02:44.366Z,16.80
2019-05-02T21:05:19.093Z,17.25
2019-05-02T21:10:26.614Z,16.40
2019-05-02T21:12:59.756Z,17.42
2019-05-02T21:15:33.291Z,18.00
2019-05-02T21:18:06.588Z,21.02
2019-05-02T21:20:41.771Z,19.75
2019-05-02T21:23:14.091Z,21.00
2019-05-02T21:25:46.848Z,21.82
2019-05-02T21:28:19.551Z,20.40
2019-05-02T21:30:52.551Z,19.10
2019-05-02T21:33:27.566Z,20.30
2019-05-02T21:36:00.656Z,20.23
2019-05-02T21:38:33.221Z,19.98
2019-05-02T21:41:07.042Z,18.65
2019-05-02T21:43:42.293Z,16.62
2019-05-02T21:46:14.416Z,18.05
2019-05-02T21:48:46.901Z,17.55
2019-05-02T21:51:22.581Z,18.17
2019-05-02T21:53:58.458Z,16.25
2019-05-02T21:56:32.942Z,17.67
2019-05-02T21:59:07.156Z,15.58
2019-05-02T22:01:44.038Z,16.02
2019-05-02T22:04:17.026Z,16.02
2019-05-02T22:06:52.125Z,15.68
2019-05-02T22:09:24.206Z,16.10
2019-05-02T22:11:57.006Z,16.27
2019-05-02T22:14:29.889Z,15.78
2019-05-02T22:17:03.321Z,14.93
2019-05-02T22:19:35.697Z,15.10
2019-05-02T22:22:08.430Z,15.95
2019-05-02T22:24:42.109Z,15.28
2019-05-02T22:27:16.761Z,15.03
2019-05-02T22:29:49.524Z,14.87
2019-05-02T22:32:22.596Z,14.45
2019-05-02T22:34:55.952Z,14.85
2019-05-02T22:37:28.994Z,14.90
2019-05-02T22:40:03.973Z,15.40
2019-05-02T22:42:36.436Z,15.03
2019-05-02T22:45:12.506Z,15.55
2019-05-02T22:47:45.466Z,15.95
2019-05-02T22:50:18.145Z,15.08
2019-05-02T22:52:52.242Z,15.23
2019-05-02T22:55:24.929Z,16.80
2019-05-02T22:57:57.442Z,16.97
2019-05-02T23:00:32.185Z,16.02
2019-05-02T23:03:04.633Z,17.05
2019-05-02T23:05:37.384Z,17.95
2019-05-02T23:08:10.014Z,18.12
2019-05-02T23:10:42.846Z,20.30
2019-05-02T23:13:15.206Z,19.95
2019-05-02T23:15:47.896Z,19.37
2019-05-02T23:18:20.330Z,19.23
2019-05-02T23:20:53.184Z,19.50
2019-05-02T23:23:25.640Z,19.40
2019-05-02T23:25:59.646Z,19.48
2019-05-02T23:28:35.181Z,18.45
2019-05-02T23:31:07.785Z,17.80
2019-05-02T23:33:42.311Z,17.95
2019-05-02T23:36:14.949Z,17.77
2019-05-02T23:38:47.634Z,17.10
2019-05-02T23:41:22.003Z,17.82
2019-05-02T23:43:54.320Z,18.00
2019-05-02T23:46:27.435Z,16.93
2019-05-02T23:49:02.015Z,17.00
2019-05-02T23:51:34.710Z,17.55
2019-05-02T23:54:07.216Z,17.73
2019-05-02T23:56:39.678Z,17.20
2019-05-02T23:59:12.292Z,17.10
